createdAt,value
2019-04-03T00:01:26.328Z,95847.25
2019-04-03T00:03:56.375Z,95849.88
2019-04-03T00:06:26.408Z,95844.06
2019-04-03T00:08:56.478Z,95841.98
2019-04-03T00:11:26.614Z,95841.63
2019-04-03T00:13:56.688Z,95833.19
2019-04-03T00:16:26.728Z,95839.17
2019-04-03T00:18:56.904Z,95828.19
2019-04-03T00:21:26.911Z,95829.48
2019-04-03T00:23:57.147Z,95823.20
2019-04-03T00:26:30.351Z,95824.06
2019-04-03T00:28:59.522Z,95803.88
2019-04-03T00:31:29.664Z,95819.89
2019-04-03T00:33:59.804Z,95820.36
2019-04-03T00:36:29.997Z,95819.99
2019-04-03T00:39:00.140Z,95815.39
2019-04-03T00:41:30.240Z,95814.98
2019-04-03T00:44:00.289Z,95814.16
2019-04-03T00:46:30.367Z,95807.02
2019-04-03T00:49:00.389Z,95813.36
2019-04-03T00:51:30.425Z,95806.23
2019-04-03T00:54:00.497Z,95804.13
2019-04-03T00:56:30.537Z,95801.63
2019-04-03T00:59:00.605Z,95800.81
2019-04-03T01:01:30.676Z,95795.80
2019-04-03T01:04:00.729Z,95798.38
2019-04-03T01:06:30.845Z,95795.50
2019-04-03T01:09:00.849Z,95797.66
2019-04-03T01:11:31.141Z,95794.30
2019-04-03T01:14:01.561Z,95796.44
2019-04-03T01:16:33.017Z,95793.53
2019-04-03T01:19:05.754Z,95794.40
2019-04-03T01:21:37.245Z,95791.45
2019-04-03T01:24:08.372Z,95794.00
2019-04-03T01:26:40.181Z,95791.05
2019-04-03T01:29:10.623Z,95790.23
2019-04-03T01:31:42.818Z,95784.34
2019-04-03T01:34:15.640Z,95783.91
2019-04-03T01:36:46.581Z,95783.52
2019-04-03T01:39:19.140Z,95781.39
2019-04-03T01:41:51.087Z,95771.29
2019-04-03T01:44:22.562Z,95776.75
2019-04-03T01:46:52.998Z,95785.19
2019-04-03T01:49:23.049Z,95776.33
2019-04-03T01:51:53.082Z,95772.95
2019-04-03T01:54:23.081Z,95765.37
2019-04-03T01:56:53.176Z,95767.05
2019-04-03T01:59:23.403Z,95760.69
2019-04-03T02:01:53.439Z,95758.14
2019-04-03T02:04:23.504Z,95756.44
2019-04-03T02:06:53.576Z,95755.59
2019-04-03T02:09:23.647Z,95749.78
2019-04-03T02:11:53.728Z,95739.28
2019-04-03T02:14:23.780Z,95733.84
2019-04-03T02:16:54.087Z,95738.05
2019-04-03T02:19:26.266Z,95733.03
2019-04-03T02:21:57.948Z,95720.41
2019-04-03T02:24:27.898Z,95727.60
2019-04-03T02:26:57.943Z,95723.80
2019-04-03T02:29:28.047Z,95720.02
2019-04-03T02:31:59.154Z,95716.22
2019-04-03T02:34:33.403Z,95705.25
2019-04-03T02:37:01.562Z,95700.20
2019-04-03T02:39:31.598Z,95699.39
2019-04-03T02:42:02.052Z,95705.27
2019-04-03T02:44:32.358Z,95709.91
2019-04-03T02:47:02.424Z,95712.02
2019-04-03T02:49:32.494Z,95711.18
2019-04-03T02:52:02.527Z,95717.89
2019-04-03T02:54:35.042Z,95717.02
2019-04-03T02:57:04.325Z,95719.56
2019-04-03T02:59:34.346Z,95715.31
2019-04-03T03:02:04.367Z,95711.95
2019-04-03T03:04:34.863Z,95713.62
2019-04-03T03:07:05.540Z,95732.54
2019-04-03T03:09:35.970Z,95723.25
2019-04-03T03:12:06.359Z,95717.76
2019-04-03T03:14:39.346Z,95715.63
2019-04-03T03:17:08.960Z,95719.41
2019-04-03T03:19:39.191Z,95714.34
2019-04-03T03:22:09.395Z,95716.84
2019-04-03T03:24:39.703Z,95717.69
2019-04-03T03:27:10.329Z,95717.66
2019-04-03T03:29:40.613Z,95723.97
2019-04-03T03:32:18.695Z,95721.88
2019-04-03T03:34:53.193Z,95716.81
2019-04-03T03:37:15.684Z,95720.20
2019-04-03T03:39:45.945Z,95720.22
2019-04-03T03:42:16.332Z,95710.92
2019-04-03T03:44:47.006Z,95707.56
2019-04-03T03:47:17.652Z,95702.48
2019-04-03T03:49:49.697Z,95708.78
2019-04-03T03:52:19.526Z,95700.36
2019-04-03T03:54:51.555Z,95700.77
2019-04-03T03:57:21.789Z,95696.53
2019-04-03T03:59:52.909Z,95703.28
2019-04-03T04:02:23.642Z,95706.64
2019-04-03T04:04:53.816Z,95707.09
2019-04-03T04:07:24.039Z,95705.00
2019-04-03T04:09:54.179Z,95705.45
2019-04-03T04:12:24.521Z,95694.08
2019-04-03T04:14:56.526Z,95697.45
2019-04-03T04:17:26.728Z,95691.97
2019-04-03T04:19:56.839Z,95692.80
2019-04-03T04:22:28.166Z,95694.89
2019-04-03T04:24:59.580Z,95690.69
2019-04-03T04:27:33.097Z,95697.86
2019-04-03T04:30:02.293Z,95694.06
2019-04-03T04:32:32.438Z,95700.86
2019-04-03T04:35:02.470Z,95700.81
2019-04-03T04:37:32.671Z,95701.24
2019-04-03T04:40:02.657Z,95703.77
2019-04-03T04:42:34.496Z,95696.17
2019-04-03T04:45:04.780Z,95695.82
2019-04-03T04:47:34.779Z,95692.48
2019-04-03T04:50:05.010Z,95693.75
2019-04-03T04:52:35.047Z,95689.95
2019-04-03T04:55:05.323Z,95688.67
2019-04-03T04:57:35.335Z,95691.62
2019-04-03T05:00:06.556Z,95697.52
2019-04-03T05:02:36.627Z,95705.11
2019-04-03T05:05:09.001Z,95695.02
2019-04-03T05:07:39.001Z,95692.05
2019-04-03T05:10:09.554Z,95689.95
2019-04-03T05:12:42.613Z,95695.43
2019-04-03T05:15:11.452Z,95696.30
2019-04-03T05:17:41.666Z,95704.73
2019-04-03T05:20:11.806Z,95700.95
2019-04-03T05:22:41.854Z,95700.94
2019-04-03T05:25:12.125Z,95698.44
2019-04-03T05:27:42.202Z,95698.87
2019-04-03T05:30:12.503Z,95692.97
2019-04-03T05:32:45.449Z,95690.87
2019-04-03T05:35:15.575Z,95687.48
2019-04-03T05:37:45.795Z,95680.75
2019-04-03T05:40:15.761Z,95690.86
2019-04-03T05:42:45.805Z,95689.14
2019-04-03T05:45:15.851Z,95691.68
2019-04-03T05:47:45.868Z,95693.34
2019-04-03T05:50:16.891Z,95691.24
2019-04-03T05:52:46.996Z,95684.05
2019-04-03T05:55:17.219Z,95682.35
2019-04-03T05:57:47.205Z,95689.08
2019-04-03T06:00:17.254Z,95693.28
2019-04-03T06:02:47.412Z,95686.53
2019-04-03T06:05:19.285Z,95683.98
2019-04-03T06:07:49.814Z,95678.08
2019-04-03T06:10:20.358Z,95683.95
2019-04-03T06:12:50.411Z,95681.41
2019-04-03T06:15:22.048Z,95681.43
2019-04-03T06:17:54.259Z,95681.86
2019-04-03T06:20:24.206Z,95667.95
2019-04-03T06:22:54.184Z,95672.58
2019-04-03T06:25:24.272Z,95675.52
2019-04-03T06:27:54.296Z,95670.45
2019-04-03T06:30:25.747Z,95668.31
2019-04-03T06:32:56.415Z,95661.09
2019-04-03T06:35:26.701Z,95666.99
2019-04-03T06:37:56.914Z,95663.58
2019-04-03T06:40:26.867Z,95646.66
2019-04-03T06:42:56.914Z,95650.00
2019-04-03T06:45:27.164Z,95645.73
2019-04-03T06:47:57.133Z,95645.66
2019-04-03T06:50:27.229Z,95644.77
2019-04-03T06:52:58.107Z,95644.27
2019-04-03T06:55:28.152Z,95637.86
2019-04-03T06:57:58.142Z,95634.86
2019-04-03T07:00:28.195Z,95633.50
2019-04-03T07:02:58.255Z,95645.18
2019-04-03T07:05:28.435Z,95637.48
2019-04-03T07:08:00.661Z,95638.66
2019-04-03T07:10:30.598Z,95643.66
2019-04-03T07:13:00.835Z,95643.59
2019-04-03T07:15:30.878Z,95641.39
2019-04-03T07:18:01.800Z,95651.49
2019-04-03T07:20:33.007Z,95641.31
2019-04-03T07:23:03.195Z,95635.34
2019-04-03T07:25:34.021Z,95636.17
2019-04-03T07:28:04.722Z,95635.33
2019-04-03T07:30:34.817Z,95635.28
2019-04-03T07:33:05.796Z,95643.72
2019-04-03T07:35:39.135Z,95631.42
2019-04-03T07:38:08.402Z,95633.91
2019-04-03T07:40:38.631Z,95635.13
2019-04-03T07:43:09.022Z,95623.27
2019-04-03T07:45:39.077Z,95629.49
2019-04-03T07:48:09.130Z,95634.52
2019-04-03T07:50:39.780Z,95627.28
2019-04-03T07:53:10.978Z,95625.52
2019-04-03T07:55:43.718Z,95620.37
2019-04-03T07:58:13.057Z,95621.96
2019-04-03T08:00:43.082Z,95625.69
2019-04-03T08:03:13.224Z,95629.39
2019-04-03T08:05:43.353Z,95633.66
2019-04-03T08:08:13.471Z,95618.84
2019-04-03T08:10:43.717Z,95625.95
2019-04-03T08:13:13.843Z,95620.83
2019-04-03T08:15:44.494Z,95624.55
2019-04-03T08:18:15.407Z,95623.57
2019-04-03T08:20:45.560Z,95622.16
2019-04-03T08:23:16.565Z,95625.37
2019-04-03T08:25:48.436Z,95623.51
2019-04-03T08:28:19.344Z,95621.63
2019-04-03T08:30:49.358Z,95621.88
2019-04-03T08:33:25.487Z,95618.78
2019-04-03T08:35:51.156Z,95614.38
2019-04-03T08:38:21.612Z,95624.31
2019-04-03T08:40:53.338Z,95622.45
2019-04-03T08:43:23.705Z,95614.69
2019-04-03T08:45:53.944Z,95618.72
2019-04-03T08:48:24.216Z,95613.05
2019-04-03T08:50:54.337Z,95617.47
2019-04-03T08:53:24.539Z,95606.83
2019-04-03T08:55:56.574Z,95610.37
2019-04-03T08:58:26.784Z,95600.03
2019-04-03T09:01:04.146Z,95601.61
2019-04-03T09:03:36.024Z,95598.10
2019-04-03T09:06:07.980Z,95592.00
2019-04-03T09:08:38.205Z,95592.52
2019-04-03T09:11:09.935Z,95582.08
2019-04-03T09:13:40.393Z,95578.84
2019-04-03T09:16:11.028Z,95571.45
2019-04-03T09:18:41.337Z,95569.69
2019-04-03T09:21:14.284Z,95573.14
2019-04-03T09:23:43.295Z,95570.36
2019-04-03T09:26:13.440Z,95571.81
2019-04-03T09:28:43.826Z,95564.72
2019-04-03T09:31:13.925Z,95560.41
2019-04-03T09:33:44.022Z,95554.36
2019-04-03T09:36:14.134Z,95545.81
2019-04-03T09:38:44.304Z,95555.86
2019-04-03T09:41:14.474Z,95557.23
2019-04-03T09:43:44.581Z,95556.24
2019-04-03T09:46:14.846Z,95555.93
2019-04-03T09:48:45.314Z,95538.19
2019-04-03T09:51:17.610Z,95535.47
2019-04-03T09:53:47.518Z,95532.34
2019-04-03T09:56:17.683Z,95529.07
2019-04-03T09:58:48.095Z,95526.53
2019-04-03T10:01:18.996Z,95526.84
2019-04-03T10:03:51.999Z,95523.91
2019-04-03T10:06:22.214Z,95522.34
2019-04-03T10:08:52.472Z,95509.65
2019-04-03T10:11:22.513Z,95505.41
2019-04-03T10:13:52.576Z,95503.26
2019-04-03T10:16:23.032Z,95487.80
2019-04-03T10:18:53.585Z,95493.71
2019-04-03T10:21:23.698Z,95488.28
2019-04-03T10:23:54.119Z,95488.28
2019-04-03T10:26:24.386Z,95479.27
2019-04-03T10:28:54.860Z,95471.45
2019-04-03T10:31:25.010Z,95468.77
2019-04-03T10:33:55.274Z,95459.59
2019-04-03T10:36:25.333Z,95455.05
2019-04-03T10:38:55.393Z,95447.28
2019-04-03T10:41:27.706Z,95443.84
2019-04-03T10:43:58.242Z,95442.95
2019-04-03T10:46:29.705Z,95440.38
2019-04-03T10:49:00.881Z,95429.92
2019-04-03T10:51:31.872Z,95432.89
2019-04-03T10:54:02.067Z,95424.48
2019-04-03T10:56:32.730Z,95419.52
2019-04-03T10:59:10.282Z,95412.39
2019-04-03T11:01:34.807Z,95416.38
2019-04-03T11:04:06.039Z,95414.20
2019-04-03T11:06:37.515Z,95412.05
2019-04-03T11:09:10.366Z,95412.05
2019-04-03T11:11:42.970Z,95400.92
2019-04-03T11:14:12.386Z,95401.32
2019-04-03T11:16:45.980Z,95388.66
2019-04-03T11:19:15.303Z,95385.86
2019-04-03T11:21:45.568Z,95389.13
2019-04-03T11:24:15.607Z,95380.46
2019-04-03T11:26:46.216Z,95376.61
2019-04-03T11:29:16.357Z,95380.18
2019-04-03T11:31:46.658Z,95371.83
2019-04-03T11:34:18.313Z,95366.00
2019-04-03T11:36:48.768Z,95364.02
2019-04-03T11:39:19.039Z,95364.88
2019-04-03T11:41:49.112Z,95360.59
2019-04-03T11:44:19.302Z,95352.81
2019-04-03T11:46:49.321Z,95343.17
2019-04-03T11:49:20.019Z,95345.07
2019-04-03T11:51:51.087Z,95338.29
2019-04-03T11:54:23.470Z,95334.14
2019-04-03T11:56:56.268Z,95344.24
2019-04-03T11:59:25.459Z,95332.15
2019-04-03T12:01:55.579Z,95327.26
2019-04-03T12:04:25.826Z,95322.64
2019-04-03T12:06:55.773Z,95312.59
2019-04-03T12:09:25.968Z,95315.35
2019-04-03T12:11:56.002Z,95306.77
2019-04-03T12:14:26.386Z,95310.03
2019-04-03T12:16:58.319Z,95306.09
2019-04-03T12:19:28.579Z,95295.66
2019-04-03T12:21:58.740Z,95290.39
2019-04-03T12:24:28.838Z,95292.06
2019-04-03T12:27:01.545Z,95285.79
2019-04-03T12:29:32.076Z,95283.95
2019-04-03T12:32:04.027Z,95284.34
2019-04-03T12:34:36.739Z,95276.31
2019-04-03T12:37:07.226Z,95268.23
2019-04-03T12:39:37.652Z,95266.48
2019-04-03T12:42:08.736Z,95263.16
2019-04-03T12:44:39.907Z,95260.58
2019-04-03T12:47:12.445Z,95267.52
2019-04-03T12:49:42.392Z,95253.59
2019-04-03T12:52:12.547Z,95250.22
2019-04-03T12:54:42.649Z,95245.44
2019-04-03T12:57:12.693Z,95240.73
2019-04-03T12:59:42.844Z,95235.31
2019-04-03T13:02:12.903Z,95232.16
2019-04-03T13:04:43.069Z,95232.16
2019-04-03T13:07:14.484Z,95226.95
2019-04-03T13:09:44.664Z,95222.08
2019-04-03T13:12:15.171Z,95215.37
2019-04-03T13:14:45.345Z,95211.95
2019-04-03T13:17:15.469Z,95211.47
2019-04-03T13:19:45.613Z,95207.87
2019-04-03T13:22:18.028Z,95202.08
2019-04-03T13:24:50.153Z,95200.50
2019-04-03T13:27:20.917Z,95190.20
2019-04-03T13:29:51.478Z,95178.61
2019-04-03T13:32:23.071Z,95182.66
2019-04-03T13:34:53.230Z,95185.23
2019-04-03T13:37:23.897Z,95179.00
2019-04-03T13:39:55.312Z,95174.09
2019-04-03T13:42:25.394Z,95174.00
2019-04-03T13:44:56.502Z,95172.17
2019-04-03T13:47:27.475Z,95176.01
2019-04-03T13:49:57.551Z,95167.95
2019-04-03T13:52:39.232Z,95159.90
2019-04-03T13:54:59.391Z,95154.05
2019-04-03T13:57:29.518Z,95151.80
2019-04-03T14:00:01.654Z,95153.77
2019-04-03T14:02:31.347Z,95153.77
2019-04-03T14:05:01.841Z,95148.95
2019-04-03T14:07:32.228Z,95143.63
2019-04-03T14:10:02.284Z,95130.39
2019-04-03T14:12:32.352Z,95133.16
2019-04-03T14:15:04.356Z,95124.70
2019-04-03T14:17:36.297Z,95116.41
2019-04-03T14:20:08.189Z,95125.05
2019-04-03T14:22:38.374Z,95121.38
2019-04-03T14:25:19.815Z,95127.51
2019-04-03T14:27:40.623Z,95117.53
2019-04-03T14:30:12.177Z,95113.26
2019-04-03T14:32:44.989Z,95108.50
2019-04-03T14:35:42.000Z,95113.67
2019-04-03T14:37:46.619Z,95102.99
2019-04-03T14:40:16.935Z,95104.29
2019-04-03T14:42:46.996Z,95091.04
2019-04-03T14:45:17.871Z,95091.20
2019-04-03T14:47:47.997Z,95082.00
2019-04-03T14:50:18.121Z,95084.75
2019-04-03T14:52:49.509Z,95076.38
2019-04-03T14:55:22.641Z,95070.75
2019-04-03T14:57:55.042Z,95047.53
2019-04-03T15:00:28.679Z,95061.70
2019-04-03T15:02:57.524Z,95059.86
2019-04-03T15:05:27.739Z,95058.47
2019-04-03T15:07:57.812Z,95059.95
2019-04-03T15:10:30.740Z,95059.85
2019-04-03T15:13:00.523Z,95067.22
2019-04-03T15:15:30.648Z,95064.14
2019-04-03T15:18:01.090Z,95066.59
2019-04-03T15:20:33.455Z,95057.04
2019-04-03T15:23:05.241Z,95052.28
2019-04-03T15:25:35.248Z,95048.46
2019-04-03T15:28:06.044Z,95054.22
2019-04-03T15:30:36.367Z,95056.00
2019-04-03T15:33:06.919Z,95060.53
2019-04-03T15:35:37.062Z,95055.57
2019-04-03T15:38:07.559Z,95052.81
2019-04-03T15:40:37.604Z,95052.45
2019-04-03T15:43:10.370Z,95049.02
2019-04-03T15:45:40.329Z,95050.19
2019-04-03T15:48:10.473Z,95044.05
2019-04-03T15:50:41.000Z,95044.73
2019-04-03T15:53:12.542Z,95043.98
2019-04-03T15:55:42.645Z,95042.41
2019-04-03T15:58:12.739Z,95043.61
2019-04-03T16:00:43.458Z,95040.63
2019-04-03T16:03:16.356Z,95036.78
2019-04-03T16:05:46.449Z,95040.45
2019-04-03T16:08:16.767Z,95037.00
2019-04-03T16:10:47.099Z,95046.91
2019-04-03T16:13:17.585Z,95038.62
2019-04-03T16:15:47.996Z,95040.29
2019-04-03T16:18:20.098Z,95046.06
2019-04-03T16:20:50.829Z,95044.72
2019-04-03T16:23:21.830Z,95047.12
2019-04-03T16:25:54.454Z,95057.09
2019-04-03T16:28:24.746Z,95049.55
2019-04-03T16:30:54.931Z,95043.95
2019-04-03T16:33:25.579Z,95039.22
2019-04-03T16:35:56.286Z,95037.83
2019-04-03T16:38:28.532Z,95040.39
2019-04-03T16:40:58.586Z,95039.55
2019-04-03T16:43:29.854Z,95032.17
2019-04-03T16:46:00.241Z,95035.94
2019-04-03T16:48:31.191Z,95036.22
2019-04-03T16:51:01.611Z,95039.34
2019-04-03T16:53:32.570Z,95039.89
2019-04-03T16:56:05.883Z,95043.59
2019-04-03T16:58:35.217Z,95042.91
2019-04-03T17:01:05.692Z,95041.38
2019-04-03T17:03:36.453Z,95034.95
2019-04-03T17:06:07.167Z,95038.73
2019-04-03T17:08:37.468Z,95038.88
2019-04-03T17:11:07.932Z,95033.39
2019-04-03T17:13:38.563Z,95027.11
2019-04-03T17:16:08.816Z,95031.34
2019-04-03T17:18:39.343Z,95034.94
2019-04-03T17:21:09.816Z,95025.87
2019-04-03T17:23:39.978Z,95026.45
2019-04-03T17:26:10.797Z,95028.33
2019-04-03T17:28:41.763Z,95028.22
2019-04-03T17:31:12.185Z,95026.36
2019-04-03T17:33:43.734Z,95027.34
2019-04-03T17:36:14.137Z,95028.22
2019-04-03T17:38:47.185Z,95025.55
2019-04-03T17:41:17.342Z,95027.56
2019-04-03T17:43:47.552Z,95032.86
2019-04-03T17:46:18.245Z,95029.64
2019-04-03T17:48:49.985Z,95027.36
2019-04-03T17:51:21.309Z,95032.73
2019-04-03T17:53:51.741Z,95030.55
2019-04-03T17:56:22.051Z,95030.06
2019-04-03T17:58:52.440Z,95030.81
2019-04-03T18:01:23.413Z,95039.06
2019-04-03T18:03:56.524Z,95048.22
2019-04-03T18:06:27.936Z,95040.28
2019-04-03T18:08:58.722Z,95033.62
2019-04-03T18:11:29.404Z,95034.77
2019-04-03T18:13:59.732Z,95035.91
2019-04-03T18:16:30.312Z,95042.94
2019-04-03T18:19:00.750Z,95047.27
2019-04-03T18:21:31.956Z,95049.19
2019-04-03T18:24:02.139Z,95049.75
2019-04-03T18:26:32.548Z,95047.77
2019-04-03T18:29:03.036Z,95056.44
2019-04-03T18:31:33.470Z,95058.34
2019-04-03T18:34:03.935Z,95055.48
2019-04-03T18:36:34.333Z,95055.98
2019-04-03T18:39:07.811Z,95055.20
2019-04-03T18:41:39.714Z,95057.11
2019-04-03T18:44:21.638Z,95055.96
2019-04-03T18:46:42.218Z,95054.03
2019-04-03T18:49:12.697Z,95051.48
2019-04-03T18:51:43.155Z,95055.81
2019-04-03T18:54:13.768Z,95056.62
2019-04-03T18:56:45.590Z,95045.69
2019-04-03T18:59:16.021Z,95046.72
2019-04-03T19:01:46.150Z,95050.14
2019-04-03T19:04:16.506Z,95053.75
2019-04-03T19:06:46.818Z,95053.16
2019-04-03T19:09:17.210Z,95050.88
2019-04-03T19:11:47.676Z,95051.94
2019-04-03T19:14:27.117Z,95052.06
2019-04-03T19:16:52.504Z,95046.67
2019-04-03T19:19:23.618Z,95043.84
2019-04-03T19:21:54.619Z,95046.52
2019-04-03T19:24:25.784Z,95047.41
2019-04-03T19:26:56.228Z,95044.14
2019-04-03T19:29:26.414Z,95039.03
2019-04-03T19:31:56.768Z,95038.20
2019-04-03T19:34:27.043Z,95045.07
2019-04-03T19:36:57.343Z,95043.91
2019-04-03T19:39:28.468Z,95047.89
2019-04-03T19:41:59.346Z,95045.34
2019-04-03T19:44:29.528Z,95045.34
2019-04-03T19:47:02.434Z,95040.86
2019-04-03T19:49:32.710Z,95043.17
2019-04-03T19:52:03.042Z,95040.39
2019-04-03T19:54:33.264Z,95038.42
2019-04-03T19:57:04.721Z,95038.99
2019-04-03T19:59:34.903Z,95041.66
2019-04-03T20:02:05.376Z,95042.50
2019-04-03T20:04:35.834Z,95037.45
2019-04-03T20:07:06.072Z,95040.98
2019-04-03T20:09:36.354Z,95041.91
2019-04-03T20:12:18.470Z,95036.49
2019-04-03T20:14:58.180Z,95035.22
2019-04-03T20:17:20.444Z,95042.08
2019-04-03T20:19:50.603Z,95038.75
2019-04-03T20:22:20.733Z,95043.96
2019-04-03T20:24:59.805Z,95050.83
2019-04-03T20:27:23.489Z,95047.86
2019-04-03T20:29:54.712Z,95052.17
2019-04-03T20:32:24.929Z,95052.41
2019-04-03T20:34:55.132Z,95067.39
2019-04-03T20:37:26.196Z,95093.86
2019-04-03T20:39:59.584Z,95106.31
2019-04-03T20:42:29.061Z,95108.31
2019-04-03T20:44:59.151Z,95121.11
2019-04-03T20:47:29.314Z,95132.59
2019-04-03T20:49:59.585Z,95131.95
2019-04-03T20:52:30.696Z,95132.05
2019-04-03T20:55:01.779Z,95192.20
2019-04-03T20:57:33.359Z,95172.04
2019-04-03T21:00:03.719Z,95196.79
2019-04-03T21:02:34.786Z,95210.41
2019-04-03T21:05:07.594Z,95231.32
2019-04-03T21:07:36.845Z,95242.22
2019-04-03T21:10:07.661Z,95249.52
2019-04-03T21:12:39.274Z,95252.37
2019-04-03T21:15:09.579Z,95256.83
2019-04-03T21:17:41.213Z,95262.55
2019-04-03T21:20:11.404Z,95265.78
2019-04-03T21:22:41.432Z,95264.20
2019-04-03T21:25:11.599Z,95285.37
2019-04-03T21:27:41.689Z,95286.21
2019-04-03T21:30:12.043Z,95293.09
2019-04-03T21:32:42.141Z,95297.44
2019-04-03T21:35:12.251Z,95294.62
2019-04-03T21:37:42.353Z,95302.03
2019-04-03T21:40:14.739Z,95298.77
2019-04-03T21:42:44.115Z,95310.62
2019-04-03T21:45:14.192Z,95326.80
2019-04-03T21:47:44.256Z,95325.69
2019-04-03T21:50:14.399Z,95339.62
2019-04-03T21:52:44.419Z,95336.73
2019-04-03T21:55:14.568Z,95342.72
2019-04-03T21:57:44.662Z,95346.54
2019-04-03T22:00:18.917Z,95335.59
2019-04-03T22:02:49.837Z,95342.34
2019-04-03T22:05:20.103Z,95345.70
2019-04-03T22:07:50.432Z,95357.08
2019-04-03T22:10:20.505Z,95349.11
2019-04-03T22:12:50.565Z,95348.30
2019-04-03T22:15:20.671Z,95350.02
2019-04-03T22:17:52.355Z,95348.75
2019-04-03T22:20:22.739Z,95352.56
2019-04-03T22:22:52.799Z,95358.87
2019-04-03T22:25:23.041Z,95351.76
2019-04-03T22:27:53.198Z,95353.45
2019-04-03T22:30:23.374Z,95356.83
2019-04-03T22:32:53.997Z,95350.14
2019-04-03T22:35:27.898Z,95356.86
2019-04-03T22:37:57.325Z,95351.82
2019-04-03T22:40:27.548Z,95356.04
2019-04-03T22:42:57.601Z,95350.99
2019-04-03T22:45:27.677Z,95351.00
2019-04-03T22:47:57.738Z,95345.09
2019-04-03T22:50:27.839Z,95343.42
2019-04-03T22:52:57.908Z,95343.48
2019-04-03T22:55:28.065Z,95345.20
2019-04-03T22:57:58.075Z,95346.04
2019-04-03T23:00:28.116Z,95349.86
2019-04-03T23:02:58.246Z,95338.13
2019-04-03T23:05:28.246Z,95317.50
2019-04-03T23:07:58.479Z,95317.53
2019-04-03T23:10:34.181Z,95323.42
2019-04-03T23:13:05.272Z,95320.08
2019-04-03T23:15:35.365Z,95328.47
2019-04-03T23:18:05.615Z,95328.47
2019-04-03T23:20:35.661Z,95327.66
2019-04-03T23:23:05.805Z,95332.27
2019-04-03T23:25:35.974Z,95333.95
2019-04-03T23:28:06.009Z,95331.85
2019-04-03T23:30:36.129Z,95326.39
2019-04-03T23:33:06.246Z,95325.16
2019-04-03T23:35:36.339Z,95321.83
2019-04-03T23:38:06.424Z,95326.03
2019-04-03T23:40:36.488Z,95320.14
2019-04-03T23:43:09.468Z,95307.93
2019-04-03T23:45:39.614Z,95302.47
2019-04-03T23:48:09.732Z,95294.91
2019-04-03T23:50:39.875Z,95305.40
2019-04-03T23:53:09.972Z,95296.57
2019-04-03T23:55:40.273Z,95294.47
2019-04-03T23:58:10.912Z,95289.03
